createdAt,value
2022-09-10T06:40:35.715Z,19.04
2022-09-10T07:11:08.288Z,19.25
2022-09-10T07:56:35.124Z,20.05
2022-09-10T10:10:25.030Z,24.17
2022-09-10T10:39:14.389Z,24.74
2022-09-10T10:58:29.465Z,25.16
2022-09-10T11:00:59.957Z,25.17
2022-09-10T11:03:44.910Z,25.23
2022-09-10T11:06:26.626Z,25.32
2022-09-10T11:09:21.794Z,25.33
2022-09-10T11:12:07.609Z,25.47
2022-09-10T11:15:48.436Z,25.53
2022-09-10T11:53:16.814Z,26.21
2022-09-10T12:02:23.551Z,26.48
2022-09-10T12:45:12.560Z,25.82
2022-09-10T13:05:03.556Z,25.64
2022-09-10T13:07:37.630Z,25.65
2022-09-10T13:10:16.438Z,25.76
2022-09-10T13:12:46.873Z,25.61
2022-09-10T13:15:36.564Z,25.53
2022-09-10T13:44:45.872Z,25.14
2022-09-10T13:47:22.680Z,24.97
2022-09-10T14:22:16.391Z,23.90
2022-09-10T14:24:54.747Z,23.69
2022-09-10T14:27:26.025Z,23.73
2022-09-10T14:30:39.774Z,23.58
2022-09-10T14:33:28.405Z,23.46
2022-09-10T14:36:07.788Z,23.28
2022-09-10T15:56:04.494Z,21.18
2022-09-10T15:58:33.980Z,21.15
2022-09-10T16:01:13.361Z,21.11
2022-09-10T16:03:47.265Z,21.06
2022-09-10T16:06:19.955Z,21.07
2022-09-10T16:08:56.792Z,21.04
2022-09-10T16:11:27.653Z,21.03
2022-09-10T16:14:04.109Z,20.99
2022-09-10T16:16:37.756Z,20.98
2022-09-10T16:19:10.054Z,21.13
2022-09-10T16:25:14.174Z,20.97
2022-09-10T16:27:45.472Z,20.90
2022-09-10T16:30:15.966Z,20.85
2022-09-10T16:32:43.125Z,20.88
2022-09-10T16:35:11.038Z,20.87
2022-09-10T16:37:42.630Z,20.85
2022-09-10T16:40:11.868Z,20.78
2022-09-10T16:42:41.953Z,20.78
2022-09-10T16:53:01.235Z,20.67
2022-09-10T16:58:46.661Z,20.64
2022-09-10T17:01:15.219Z,20.52
2022-09-10T17:03:49.089Z,20.51
2022-09-10T17:06:19.015Z,20.49
2022-09-10T17:08:47.833Z,20.48
2022-09-10T17:11:16.088Z,20.57
2022-09-10T17:15:04.346Z,20.49
2022-09-10T17:20:20.880Z,20.36
2022-09-10T17:22:53.885Z,20.37
2022-09-10T17:25:29.808Z,20.25
2022-09-10T17:28:57.277Z,20.30
2022-09-10T17:31:54.280Z,20.17
2022-09-10T17:34:25.263Z,20.13
2022-09-10T17:36:58.209Z,20.08
2022-09-10T17:42:22.875Z,19.98
2022-09-10T17:52:53.767Z,19.83
2022-09-10T17:59:16.175Z,19.76
2022-09-10T18:01:55.658Z,19.73
2022-09-10T18:04:24.572Z,19.71
2022-09-10T18:10:03.642Z,19.69
2022-09-10T18:12:32.289Z,19.65
2022-09-10T18:15:03.592Z,19.73
2022-09-10T18:24:47.249Z,19.46
2022-09-10T18:27:23.876Z,19.48
2022-09-10T18:30:13.040Z,19.42
2022-09-10T18:32:46.924Z,19.50
2022-09-10T18:35:18.277Z,19.53
2022-09-10T18:37:50.203Z,19.34
2022-09-10T18:40:19.371Z,19.43
2022-09-10T18:42:48.051Z,19.29
2022-09-10T18:45:15.288Z,19.28
2022-09-10T18:47:46.785Z,19.35
2022-09-10T18:50:14.262Z,19.34
2022-09-10T18:52:46.107Z,19.20
2022-09-10T18:55:16.224Z,19.10
2022-09-10T18:57:43.494Z,19.06
2022-09-10T19:00:13.767Z,19.09
2022-09-10T19:05:40.249Z,19.03
2022-09-10T19:08:07.862Z,19.06
2022-09-10T19:10:34.923Z,19.06
2022-09-10T19:13:01.935Z,19.07
2022-09-10T19:15:28.997Z,19.03
2022-09-10T19:17:56.190Z,19.01
2022-09-10T19:20:26.693Z,18.85
2022-09-10T19:22:53.935Z,18.81
2022-09-10T19:25:23.002Z,18.77
2022-09-10T19:27:51.412Z,18.76
2022-09-10T19:30:18.594Z,18.69
2022-09-10T19:32:45.703Z,18.67
2022-09-10T19:35:13.652Z,18.72
2022-09-10T19:37:41.568Z,18.74
2022-09-10T19:40:11.010Z,18.58
2022-09-10T19:42:38.171Z,18.72
2022-09-10T19:45:09.940Z,18.70
2022-09-10T19:47:40.536Z,18.64
2022-09-10T19:50:10.347Z,18.48
2022-09-10T19:52:39.213Z,18.51
2022-09-10T19:55:07.553Z,18.45
2022-09-10T19:57:34.938Z,18.46
2022-09-10T20:00:03.982Z,18.38
2022-09-10T20:05:28.914Z,18.43
2022-09-10T20:07:56.405Z,18.42
2022-09-10T20:10:27.701Z,18.39
2022-09-10T20:12:58.942Z,18.25
2022-09-10T20:15:28.113Z,18.25
2022-09-10T20:17:55.571Z,18.22
2022-09-10T20:20:25.317Z,18.18
2022-09-10T20:23:00.674Z,18.12
2022-09-10T20:25:32.020Z,18.04
2022-09-10T20:28:01.956Z,18.12
2022-09-10T20:30:30.557Z,18.15
2022-09-10T20:32:59.713Z,18.20
2022-09-10T20:35:30.428Z,18.09
2022-09-10T20:38:00.665Z,17.94
2022-09-10T20:40:34.550Z,18.03
2022-09-10T20:43:07.947Z,17.96
2022-09-10T20:45:38.081Z,17.97
2022-09-10T20:48:09.615Z,17.86
2022-09-10T20:50:36.838Z,17.80
2022-09-10T20:53:04.043Z,17.94
2022-09-10T20:55:31.743Z,17.85
2022-09-10T20:57:58.994Z,17.87
2022-09-10T21:00:26.984Z,17.84
2022-09-10T21:02:56.758Z,17.91
2022-09-10T21:05:27.054Z,17.76
2022-09-10T21:07:55.215Z,17.76
2022-09-10T21:10:23.871Z,17.71
2022-09-10T21:12:53.446Z,17.76
2022-09-10T21:15:20.702Z,17.66
2022-09-10T21:17:49.424Z,17.71
2022-09-10T21:20:16.656Z,17.84
2022-09-10T21:22:44.344Z,17.80
2022-09-10T21:25:11.472Z,17.75
2022-09-10T21:27:38.633Z,17.69
2022-09-10T21:30:07.275Z,17.68
2022-09-10T21:32:34.755Z,17.68
2022-09-10T21:35:02.281Z,17.77
2022-09-10T21:37:32.987Z,17.60
2022-09-10T21:40:10.750Z,17.59
2022-09-10T21:42:38.311Z,17.62
2022-09-10T21:45:09.718Z,17.74
2022-09-10T21:47:41.091Z,17.57
2022-09-10T21:50:09.322Z,17.59
2022-09-10T21:52:37.831Z,17.55
2022-09-10T21:55:05.501Z,17.61
2022-09-10T21:57:32.626Z,17.63
2022-09-10T22:00:00.662Z,17.57
2022-09-10T22:02:27.931Z,17.55
2022-09-10T22:04:55.149Z,17.61
2022-09-10T22:07:23.753Z,17.54
2022-09-10T22:09:51.511Z,17.66
2022-09-10T22:12:19.051Z,17.53
2022-09-10T22:14:49.260Z,17.50
2022-09-10T22:17:19.822Z,17.43
2022-09-10T22:19:48.155Z,17.50
2022-09-10T22:22:15.282Z,17.42
2022-09-10T22:24:42.465Z,17.58
2022-09-10T22:27:09.679Z,17.47
2022-09-10T22:29:38.453Z,17.46
2022-09-10T22:32:06.411Z,17.46
2022-09-10T22:34:33.790Z,17.47
2022-09-10T22:37:03.374Z,17.46
2022-09-10T22:39:32.277Z,17.49
2022-09-10T22:42:00.148Z,17.43
2022-09-10T22:44:27.682Z,17.55
2022-09-10T22:46:56.385Z,17.40
2022-09-10T22:49:29.460Z,17.38
2022-09-10T23:02:59.816Z,17.20
2022-09-10T23:05:35.932Z,17.41
2022-09-10T23:08:16.294Z,17.43
2022-09-10T23:13:58.736Z,17.21
2022-09-10T23:16:54.751Z,17.15
2022-09-10T23:19:27.278Z,17.17
2022-09-10T23:22:10.837Z,17.36
2022-09-10T23:24:44.484Z,17.34
2022-09-10T23:27:18.894Z,17.18
2022-09-10T23:29:48.208Z,17.15
2022-09-10T23:32:21.329Z,17.19
2022-09-10T23:34:50.881Z,17.09
2022-09-10T23:37:37.565Z,17.23
2022-09-10T23:40:41.321Z,17.25
2022-09-10T23:43:14.773Z,17.06
2022-09-10T23:45:56.140Z,17.08
2022-09-10T23:49:00.176Z,17.04
2022-09-10T23:52:03.581Z,16.98
2022-09-10T23:54:36.809Z,17.03
2022-09-10T23:57:14.058Z,16.97
